M I D A S
Marine Information and Data Acquisition System
Tripno 1904 of the Zeeleeuw from 2010-06-22 06:24:34 to 2010-06-22 16:58:46
Back to CruiseResearch ActivitiesStationsMapUnderway DataData graphs

EquipmentUnitsComment
TimeDGPSUTC
LatitudeDGPSDM.mWGS84
LongitudeDGPSDM.mWGS84
HeadingGyrodeg 
SOGDGPSknotsSpeed over ground
COGDGPSdegCourse over ground
DepthEcho soundermeters200 kHz
Missing or incorrect values are displayed as -999
Navigation data collected by the RV Zeeleeuw from 2010-06-22 06:13:07 to 2010-06-22 17:06:19
Time Latitude Longitude Heading SOG COG Depth
2010-06-22 06:14:15 51°13.673 2°55.906 106.3 3.2 286 -999
2010-06-22 06:15:15 51°13.685 2°55.815 100.3 3.5 281 -999
2010-06-22 06:16:15 51°13.686 2°55.738 74.8 1 250 13.1
2010-06-22 06:17:12 51°13.715 2°55.758 0.8 3.2 351 13.7
2010-06-22 06:18:12 51°13.771 2°55.689 323.5 5.6 321 12.3
2010-06-22 06:19:12 51°13.861 2°55.611 337 5.9 334 12.4
2010-06-22 06:20:12 51°13.947 2°55.548 334.7 5.5 333 12.1
2010-06-22 06:21:12 51°14.026 2°55.491 336.1 5.1 334 11.7
2010-06-22 06:22:12 51°14.102 2°55.436 336.8 5 337 12.2
2010-06-22 06:23:14 51°14.189 2°55.367 332.6 7.1 331 12.3
2010-06-22 06:24:12 51°14.302 2°55.245 324.4 9.8 323 11.5
2010-06-22 06:25:12 51°14.449 2°55.089 330.7 11.3 331 11.6
2010-06-22 06:26:12 51°14.593 2°54.897 302.4 11.4 300 12.5
2010-06-22 06:27:12 51°14.625 2°54.599 266.5 11.9 268 11.2
2010-06-22 06:28:12 51°14.568 2°54.286 246.4 12.5 243 11
2010-06-22 06:29:12 51°14.454 2°54.008 233.3 12.5 234 10.6
2010-06-22 06:30:12 51°14.325 2°53.744 233.2 12.7 233 10.7
2010-06-22 06:31:12 51°14.2 2°53.473 234.1 12.8 237 10.9
2010-06-22 06:32:12 51°14.075 2°53.202 234.5 12.6 237 11.1
2010-06-22 06:33:12 51°13.953 2°52.931 233.8 12.6 237 11.4
2010-06-22 06:34:12 51°13.831 2°52.661 234.5 12.6 236 11.4
2010-06-22 06:35:12 51°13.709 2°52.39 235.6 12.5 232 11.5
2010-06-22 06:36:12 51°13.589 2°52.119 235.2 12.5 233 11.5
2010-06-22 06:37:12 51°13.475 2°51.865 236 10.2 232 11.7
2010-06-22 06:38:12 51°13.384 2°51.659 235.7 9.2 237 11.7
2010-06-22 06:39:12 51°13.361 2°51.476 294 5.4 305 11.8
2010-06-22 06:40:12 51°13.435 2°51.404 328.2 5.6 335 12.3
2010-06-22 06:41:12 51°13.511 2°51.395 359.4 3.3 14 12.5
2010-06-22 06:42:12 51°13.534 2°51.42 38 0.9 51 12.3
2010-06-22 06:43:12 51°13.543 2°51.442 46.5 1 62 12.9
2010-06-22 06:44:12 51°13.551 2°51.465 49.4 0.9 62 12.3
2010-06-22 06:45:12 51°13.558 2°51.488 52.2 1 61 12.7
2010-06-22 06:46:12 51°13.566 2°51.512 55.9 1 64 12.5
2010-06-22 06:47:12 51°13.573 2°51.536 60.3 1.1 66 12.4
2010-06-22 06:48:12 51°13.58 2°51.563 64.4 1.3 66 12.5
2010-06-22 06:49:12 51°13.591 2°51.61 91.3 1.6 70 12.5
2010-06-22 06:50:12 51°13.599 2°51.65 103.3 1.5 77 12.8
2010-06-22 06:51:12 51°13.606 2°51.687 111.7 1.4 74 12.3
2010-06-22 06:52:12 51°13.613 2°51.723 113.3 1.4 72 12.4
2010-06-22 06:53:12 51°13.621 2°51.759 108.8 1.4 69 12.4
2010-06-22 06:54:12 51°13.628 2°51.793 102.3 1.4 68 12.4
2010-06-22 06:55:12 51°13.632 2°51.842 117 2.8 98 12.4
2010-06-22 06:56:12 51°13.601 2°51.893 185 2.7 175 12.4
2010-06-22 06:57:12 51°13.55 2°51.812 237.7 7.1 235 12.4
2010-06-22 06:58:12 51°13.467 2°51.603 238.1 11 241 12.4
2010-06-22 06:59:12 51°13.381 2°51.324 245.8 12.1 246 12.7
2010-06-22 07:00:12 51°13.3 2°51.031 245.5 12 244 12.8
2010-06-22 07:01:12 51°13.206 2°50.75 239.5 12 242 12.7
2010-06-22 07:02:12 51°13.107 2°50.473 240.3 12.1 240 13
2010-06-22 07:03:12 51°13.008 2°50.195 240.6 12 240 12.9
2010-06-22 07:04:12 51°12.909 2°49.919 240.3 12 239 13.4
2010-06-22 07:05:12 51°12.811 2°49.641 240.3 12 242 13.3
2010-06-22 07:06:12 51°12.712 2°49.364 239.6 12.1 244 13.4
2010-06-22 07:07:12 51°12.614 2°49.085 240.7 12.1 242 13.6
2010-06-22 07:08:12 51°12.515 2°48.808 240.5 12 242 13.9
2010-06-22 07:09:12 51°12.415 2°48.533 240.2 12 242 13.9
2010-06-22 07:10:12 51°12.317 2°48.256 240.3 12.1 242 14.1
2010-06-22 07:11:12 51°12.219 2°47.976 240.1 12.1 240 14.2
2010-06-22 07:12:12 51°12.119 2°47.696 240 12.2 239 14.3
2010-06-22 07:13:12 51°12.021 2°47.416 240.2 12.2 244 14.3
2010-06-22 07:14:12 51°11.931 2°47.13 242.6 12.1 244 14.3
2010-06-22 07:15:12 51°11.847 2°46.84 246.7 12.1 251 14.4
2010-06-22 07:16:12 51°11.782 2°46.537 251.3 12.1 254 14.6
2010-06-22 07:17:12 51°11.72 2°46.233 250.6 12 251 14.6
2010-06-22 07:18:12 51°11.655 2°45.93 250.6 12.1 248 14.6
2010-06-22 07:19:12 51°11.591 2°45.626 250.4 12.1 252 14.6
2010-06-22 07:20:12 51°11.526 2°45.323 250 12.1 250 14.9
2010-06-22 07:21:12 51°11.462 2°45.019 250.4 12.1 254 14.6
2010-06-22 07:22:12 51°11.396 2°44.717 250 12.1 251 14.6
2010-06-22 07:23:12 51°11.331 2°44.418 250.8 11.9 253 14.5
2010-06-22 07:24:12 51°11.265 2°44.122 250.4 11.9 249 14.7
2010-06-22 07:25:12 51°11.202 2°43.828 250.5 11.6 248 14.7
2010-06-22 07:26:12 51°11.136 2°43.536 250.3 11.8 249 14.7
2010-06-22 07:27:12 51°11.088 2°43.238 257.6 11.6 258 14.9
2010-06-22 07:28:12 51°11.06 2°42.93 261.4 11.7 261 14.9
2010-06-22 07:29:12 51°11.069 2°42.624 276.1 10.6 281 14.7
2010-06-22 07:30:12 51°11.079 2°42.392 266.5 8.1 271 14.9
2010-06-22 07:31:12 51°11.083 2°42.219 273.3 5.2 282 15
2010-06-22 07:32:12 51°11.11 2°42.113 282.2 3.6 296 14.5
2010-06-22 07:33:12 51°11.131 2°42.068 294.7 1.3 351 14.7
2010-06-22 07:34:12 51°11.148 2°42.085 328.9 1.3 46 14.5
2010-06-22 07:35:12 51°11.164 2°42.113 349 1.5 50 14.6
2010-06-22 07:36:12 51°11.179 2°42.144 0.1 1.5 53 14.5
2010-06-22 07:37:12 51°11.193 2°42.177 7.4 1.5 57 14.5
2010-06-22 07:38:12 51°11.211 2°42.215 26.5 2.9 47 14.5
2010-06-22 07:39:12 51°11.236 2°42.31 91.1 4.6 87 14.4
2010-06-22 07:40:12 51°11.199 2°42.409 167.7 4.7 148 14.6
2010-06-22 07:41:12 51°11.102 2°42.522 155.9 8.8 149 15.1
2010-06-22 07:42:12 51°10.958 2°42.606 172.8 10.1 166 15.1
2010-06-22 07:43:12 51°10.794 2°42.676 171.6 10.4 162 14.3
2010-06-22 07:44:12 51°10.627 2°42.747 172.9 10.3 166 12.9
2010-06-22 07:45:12 51°10.46 2°42.823 170.5 10.4 163 11.5
2010-06-22 07:46:12 51°10.293 2°42.902 170.6 10.5 164 11.1
2010-06-22 07:47:12 51°10.179 2°42.908 220.7 4.5 213 11.5
2010-06-22 07:48:12 51°10.133 2°42.78 253.1 6 258 11.5
2010-06-22 07:49:12 51°10.148 2°42.696 297 2 328 11.5
2010-06-22 07:50:12 51°10.163 2°42.711 319.7 1.2 61 11.5
2010-06-22 07:51:12 51°10.174 2°42.741 329.1 1.2 62 11.4
2010-06-22 07:52:12 51°10.183 2°42.771 330.7 1.3 64 11.4
2010-06-22 07:53:12 51°10.192 2°42.802 334.1 1.3 66 11.5
2010-06-22 07:54:12 51°10.202 2°42.834 338.3 1.3 64 11.6
2010-06-22 07:55:12 51°10.221 2°42.861 342.7 2.6 14 11.3
2010-06-22 07:56:12 51°10.298 2°42.857 340.1 6.9 351 11.3
2010-06-22 07:57:12 51°10.438 2°42.79 326.6 9.9 327 11.6
2010-06-22 07:58:12 51°10.539 2°42.583 287.5 10.3 288 12.5
2010-06-22 07:59:12 51°10.537 2°42.298 261.7 11.1 261 12.9
2010-06-22 08:00:12 51°10.482 2°42.007 248.9 11.8 254 13
2010-06-22 08:01:12 51°10.41 2°41.717 249 11.8 249 13.1
2010-06-22 08:02:12 51°10.341 2°41.428 249.2 11.8 250 13.3
2010-06-22 08:03:12 51°10.273 2°41.136 249.8 11.7 248 13.2
2010-06-22 08:04:12 51°10.204 2°40.844 250.4 11.7 249 13.3
2010-06-22 08:05:12 51°10.137 2°40.553 250.8 11.7 247 13.5
2010-06-22 08:06:12 51°10.068 2°40.261 250 11.8 249 13.4
2010-06-22 08:07:12 51°9.999 2°39.967 249.8 11.9 251 13.4
2010-06-22 08:08:12 51°9.927 2°39.671 250.7 12 250 13.4
2010-06-22 08:09:12 51°9.856 2°39.374 250.5 12 249 13.5
2010-06-22 08:10:12 51°9.787 2°39.076 251 12 249 13.6
2010-06-22 08:11:12 51°9.716 2°38.78 250.5 11.9 247 13.9
2010-06-22 08:12:12 51°9.646 2°38.484 249.8 11.8 250 14
2010-06-22 08:13:12 51°9.576 2°38.189 250.9 11.8 250 14.2
2010-06-22 08:14:12 51°9.505 2°37.894 250.6 11.9 248 14.4
2010-06-22 08:15:12 51°9.458 2°37.669 258.5 6.5 264 14.8
2010-06-22 08:16:12 51°9.458 2°37.548 249 3.1 248 15.1
2010-06-22 08:17:12 51°9.45 2°37.519 262.7 0.3 349 15.3
2010-06-22 08:18:12 51°9.459 2°37.533 290.6 1 45 15.3
2010-06-22 08:19:12 51°9.471 2°37.554 302.2 1.2 48 15.1
2010-06-22 08:20:12 51°9.484 2°37.58 312.2 1.3 57 15.4
2010-06-22 08:21:12 51°9.495 2°37.61 320 1.3 61 15.4
2010-06-22 08:22:12 51°9.504 2°37.642 324.7 1.4 66 15.5
2010-06-22 08:23:12 51°9.512 2°37.675 324.9 1.4 69 15.5
2010-06-22 08:24:12 51°9.519 2°37.71 320.9 1.4 74 15.4
2010-06-22 08:25:12 51°9.525 2°37.746 314.9 1.4 75 15.2
2010-06-22 08:26:12 51°9.533 2°37.78 306.8 1 41 15.3
2010-06-22 08:27:12 51°9.538 2°37.763 245.3 1.7 239 15.3
2010-06-22 08:28:12 51°9.504 2°37.681 245.6 4.9 245 15.3
2010-06-22 08:29:12 51°9.473 2°37.552 245.8 4.6 239 15.4
2010-06-22 08:30:12 51°9.448 2°37.481 248.6 1.8 243 15.4
2010-06-22 08:31:12 51°9.441 2°37.466 238.9 0.4 191 15.3
2010-06-22 08:32:12 51°9.433 2°37.469 230.4 0.5 165 15.1
2010-06-22 08:33:12 51°9.425 2°37.474 232.4 0.5 154 15.1
2010-06-22 08:34:12 51°9.42 2°37.478 239.7 0.2 152 14.9
2010-06-22 08:35:12 51°9.418 2°37.48 247.4 -999 82 15.1
2010-06-22 08:36:12 51°9.42 2°37.482 254.1 0.2 7 14.9
2010-06-22 08:37:12 51°9.424 2°37.484 260.1 0.4 7 14.9
2010-06-22 08:38:12 51°9.429 2°37.487 267.1 0.5 19 15.1
2010-06-22 08:39:12 51°9.438 2°37.494 271.4 0.7 35 15.1
2010-06-22 08:40:12 51°9.448 2°37.507 274.5 0.8 39 15.3
2010-06-22 08:41:33 51°9.462 2°37.529 273.8 0.8 49 15.6
2010-06-22 08:43:07 51°9.473 2°37.552 248.3 0.6 53 15.1
2010-06-22 08:44:07 51°9.474 2°37.564 234.6 0.5 117 15.4
2010-06-22 08:45:07 51°9.468 2°37.57 229.9 0.4 162 15.3
2010-06-22 08:46:07 51°9.46 2°37.571 228.8 0.6 186 15.1
2010-06-22 08:47:07 51°9.45 2°37.569 229 0.5 190 14.9
2010-06-22 08:48:07 51°9.44 2°37.569 228.9 0.6 181 14.9
2010-06-22 08:49:07 51°9.433 2°37.57 230 0.4 160 14.9
2010-06-22 08:50:07 51°9.429 2°37.574 230.3 0.3 129 14.7
2010-06-22 08:51:07 51°9.427 2°37.583 231.2 0.4 104 14.7
2010-06-22 08:52:07 51°9.426 2°37.596 234.5 0.6 93 14.7
2010-06-22 08:53:07 51°9.428 2°37.611 238.2 0.6 79 14.6
2010-06-22 08:54:07 51°9.431 2°37.627 243 0.7 70 14.6
2010-06-22 08:55:07 51°9.435 2°37.646 247.8 0.8 69 14.5
2010-06-22 08:56:07 51°9.44 2°37.666 252.4 0.8 66 14.6
2010-06-22 08:57:07 51°9.445 2°37.679 263.2 0.5 335 14.6
2010-06-22 08:58:07 51°9.464 2°37.641 285.3 3 298 14.7
2010-06-22 08:59:07 51°9.474 2°37.562 263.6 2.8 270 15.3
2010-06-22 09:00:07 51°9.467 2°37.509 243.2 1.2 245 15.3
2010-06-22 09:01:07 51°9.468 2°37.505 262.8 0.3 4 15.4
2010-06-22 09:02:07 51°9.471 2°37.505 249.8 0.1 80 15.5
2010-06-22 09:03:07 51°9.469 2°37.51 224 0.4 135 15.4
2010-06-22 09:04:07 51°9.461 2°37.526 196.1 1.1 122 15.3
2010-06-22 09:05:07 51°9.45 2°37.553 187.3 1.2 129 14.9
2010-06-22 09:06:07 51°9.437 2°37.574 206 0.9 141 14.7
2010-06-22 09:07:07 51°9.428 2°37.589 215.2 0.7 132 14.5
2010-06-22 09:08:07 51°9.423 2°37.603 220.1 0.7 113 14.6
2010-06-22 09:09:07 51°9.418 2°37.615 228.6 0.4 173 14.4
2010-06-22 09:10:07 51°9.417 2°37.602 269.4 1.2 297 14.4
2010-06-22 09:11:07 51°9.447 2°37.569 317.2 3.1 336 14.8
2010-06-22 09:12:07 51°9.483 2°37.527 282.5 1.9 302 15.6
2010-06-22 09:13:07 51°9.484 2°37.49 240.3 1.3 232 15.7
2010-06-22 09:14:07 51°9.463 2°37.486 196.4 1.7 161 15.3
2010-06-22 09:15:07 51°9.446 2°37.512 178.7 1.1 97 15.1
2010-06-22 09:16:07 51°9.444 2°37.541 175.7 1.1 96 14.9
2010-06-22 09:17:07 51°9.442 2°37.571 175 1.1 98 14.7
2010-06-22 09:18:07 51°9.44 2°37.6 175.6 1.1 98 14.6
2010-06-22 09:19:07 51°9.437 2°37.628 176.7 1.1 99 14.5
2010-06-22 09:20:07 51°9.435 2°37.656 175.3 1.1 95 14.4
2010-06-22 09:21:07 51°9.435 2°37.686 169.8 1.2 91 14.2
2010-06-22 09:22:07 51°9.436 2°37.718 160 1.2 85 14.4
2010-06-22 09:23:07 51°9.438 2°37.752 149.2 1.3 85 14.1
2010-06-22 09:24:07 51°9.441 2°37.786 139.3 1.3 79 14.2
2010-06-22 09:25:07 51°9.445 2°37.821 129.9 1.4 78 14
2010-06-22 09:26:07 51°9.45 2°37.857 121.8 1.4 76 13.9
2010-06-22 09:27:07 51°9.455 2°37.891 115.7 1.4 76 13.9
2010-06-22 09:28:07 51°9.46 2°37.926 110.2 1.3 76 13.9
2010-06-22 09:29:07 51°9.466 2°37.96 103.8 1.3 75 13.6
2010-06-22 09:30:07 51°9.471 2°37.993 97.1 1.3 76 13.8
2010-06-22 09:31:07 51°9.477 2°38.025 92 1.2 74 13.7
2010-06-22 09:32:07 51°9.483 2°38.056 89.6 1.2 75 13.6
2010-06-22 09:33:07 51°9.488 2°38.087 89.3 1.2 74 13.5
2010-06-22 09:34:07 51°9.493 2°38.117 91.3 1.2 73 13.6
2010-06-22 09:35:07 51°9.498 2°38.145 94.3 1.1 78 13.7
2010-06-22 09:36:07 51°9.503 2°38.174 99.6 1.1 76 13.4
2010-06-22 09:37:06 51°9.508 2°38.202 104.2 1.1 75 13.6
2010-06-22 09:38:07 51°9.513 2°38.231 108.8 1.2 69 13.4
2010-06-22 09:39:07 51°9.518 2°38.258 112.8 1.1 71 13.4
2010-06-22 09:40:07 51°9.523 2°38.287 116.7 1.1 74 13.4
2010-06-22 09:41:07 51°9.528 2°38.313 120.2 1 75 13.4
2010-06-22 09:42:07 51°9.533 2°38.34 123.5 1.1 73 13.2
2010-06-22 09:43:07 51°9.538 2°38.367 126.5 1.1 74 13.2
2010-06-22 09:44:18 51°9.543 2°38.398 129.9 1 73 13.2
2010-06-22 09:45:17 51°9.548 2°38.424 132 1 74 13.2
2010-06-22 09:46:18 51°9.553 2°38.45 133.6 1 75 13.2
2010-06-22 09:47:17 51°9.558 2°38.476 134.9 1 74 13.2
2010-06-22 09:48:18 51°9.563 2°38.502 135 1 72 13.2
2010-06-22 09:49:17 51°9.567 2°38.526 135.1 1 71 13.2
2010-06-22 09:50:18 51°9.572 2°38.552 135.4 0.9 72 13.3
2010-06-22 09:51:17 51°9.577 2°38.576 136.3 1 71 13.2
2010-06-22 09:52:18 51°9.582 2°38.6 137.3 1 71 13.2
2010-06-22 09:53:17 51°9.587 2°38.624 139.2 1 70 13.2
2010-06-22 09:54:18 51°9.592 2°38.647 141.2 1 69 13.2
2010-06-22 09:55:18 51°9.59 2°38.676 155.3 2 129 13.2
2010-06-22 09:56:18 51°9.55 2°38.658 238.5 3.6 246 12.9
2010-06-22 09:57:17 51°9.586 2°38.51 299.1 9.2 305 13.2
2010-06-22 09:58:18 51°9.705 2°38.271 304.8 12.6 306 14.7
2010-06-22 09:59:17 51°9.826 2°37.997 300.9 12.8 304 17.2
2010-06-22 10:00:17 51°9.944 2°37.718 300.3 12.7 303 18.3
2010-06-22 10:01:17 51°10.058 2°37.432 300.1 12.9 303 19.6
2010-06-22 10:02:17 51°10.172 2°37.143 300.6 12.9 303 20
2010-06-22 10:03:17 51°10.29 2°36.855 300.6 13 302 18.6
2010-06-22 10:04:18 51°10.409 2°36.562 299.9 13 303 11.8
2010-06-22 10:05:17 51°10.591 2°36.402 351.2 13.8 355 12.5
2010-06-22 10:06:18 51°10.824 2°36.465 17.4 14.3 19 13.5
2010-06-22 10:07:17 51°11.045 2°36.588 20 14.2 20 14.1
2010-06-22 10:08:18 51°11.269 2°36.717 20.4 14.1 20 14.4
2010-06-22 10:09:17 51°11.486 2°36.839 19.7 14 19 14.3
2010-06-22 10:10:18 51°11.709 2°36.966 20.1 14 19 13.6
2010-06-22 10:11:18 51°11.928 2°37.091 20.7 13.9 20 13.2
2010-06-22 10:12:18 51°12.146 2°37.217 20.3 14 19 12.9
2010-06-22 10:13:18 51°12.364 2°37.342 19.8 14 19 13.2
2010-06-22 10:14:18 51°12.586 2°37.458 16.1 14 17 13.4
2010-06-22 10:15:17 51°12.807 2°37.555 12.9 13.9 13 13.8
2010-06-22 10:16:18 51°13.038 2°37.627 8 13.9 9 13.7
2010-06-22 10:17:17 51°13.253 2°37.596 333 12.9 329 12.1
2010-06-22 10:18:17 51°13.425 2°37.385 317.3 13.2 320 10.7
2010-06-22 10:19:18 51°13.592 2°37.146 317.2 13.7 319 15.8
2010-06-22 10:20:17 51°13.758 2°36.915 317.3 13.4 320 21.8
2010-06-22 10:21:18 51°13.931 2°36.684 317.1 13.3 320 20.1
2010-06-22 10:22:17 51°14.094 2°36.457 317 13.3 319 14.9
2010-06-22 10:23:18 51°14.263 2°36.219 317.3 13.4 318 13.3
2010-06-22 10:24:17 51°14.438 2°36.003 327.4 13.7 329 14.8
2010-06-22 10:25:18 51°14.656 2°35.875 347.4 14 349 18.4
2010-06-22 10:26:18 51°14.892 2°35.871 3.3 14.4 7 19.3
2010-06-22 10:27:17 51°15.124 2°35.932 12.4 14.5 14 18.6
2010-06-22 10:28:18 51°15.363 2°36.024 15.9 14.5 15 20.9
2010-06-22 10:29:17 51°15.586 2°36.146 23.6 14.4 22 23.7
2010-06-22 10:30:18 51°15.811 2°36.296 23.6 14.5 22 26.9
2010-06-22 10:31:17 51°16.031 2°36.439 23.2 14.5 22 28.3
2010-06-22 10:32:18 51°16.229 2°36.571 23.5 11.2 23 29.1
2010-06-22 10:33:18 51°16.39 2°36.678 22.4 10.2 22 28.4
2010-06-22 10:34:17 51°16.524 2°36.769 23.6 7.5 24 28
2010-06-22 10:35:17 51°16.618 2°36.832 16.8 4.2 19 28
2010-06-22 10:36:18 51°16.65 2°36.854 330.3 1.1 46 28.2
2010-06-22 10:37:18 51°16.664 2°36.879 316.5 1.3 47 4.9
2010-06-22 10:38:21 51°16.679 2°36.903 312.5 1.2 44 -999
2010-06-22 10:39:19 51°16.693 2°36.924 311.2 1.2 43 27.4
2010-06-22 10:40:17 51°16.707 2°36.944 310.9 1.2 41 27.8
2010-06-22 10:41:18 51°16.721 2°36.964 310.5 1.1 40 27.7
2010-06-22 10:42:17 51°16.741 2°36.971 308.8 2.4 335 28
2010-06-22 10:43:18 51°16.808 2°36.885 309.6 8 317 28.3
2010-06-22 10:44:17 51°16.93 2°36.692 310.5 11.6 315 29.3
2010-06-22 10:45:49 51°17.136 2°36.298 305.2 13.3 308 26.2
2010-06-22 10:47:07 51°17.308 2°35.929 305.8 13.2 308 17.5
2010-06-22 10:48:44 51°17.521 2°35.486 306.4 12.9 308 12.3
2010-06-22 10:49:44 51°17.656 2°35.216 306.2 13 309 15.7
2010-06-22 10:50:44 51°17.794 2°34.954 306.5 12.8 313 19.4
2010-06-22 10:51:44 51°17.931 2°34.697 306.2 12.7 310 24.6
2010-06-22 10:52:44 51°18.069 2°34.435 306.4 12.8 310 28.9
2010-06-22 10:53:44 51°18.204 2°34.169 306.2 12.9 307 27.3
2010-06-22 10:54:44 51°18.339 2°33.899 306.3 13.1 308 25.2
2010-06-22 10:55:44 51°18.475 2°33.626 306.4 13.2 309 18.2
2010-06-22 10:56:44 51°18.611 2°33.349 306.3 13.2 308 22.7
2010-06-22 10:57:44 51°18.75 2°33.071 306.3 13.3 308 27.4
2010-06-22 10:58:44 51°18.888 2°32.792 306.4 13.4 307 30
2010-06-22 10:59:44 51°19.013 2°32.499 296.7 13.3 302 31.1
2010-06-22 11:00:44 51°19.124 2°32.192 296.2 13.3 299 31.1
2010-06-22 11:01:44 51°19.235 2°31.884 297.9 13.4 300 31.9
2010-06-22 11:02:44 51°19.352 2°31.582 299.5 13.5 302 31.2
2010-06-22 11:03:44 51°19.466 2°31.28 298.8 13.2 301 31.2
2010-06-22 11:04:44 51°19.582 2°30.983 301.9 13.2 304 28.2
2010-06-22 11:05:44 51°19.701 2°30.69 301.7 13 303 20
2010-06-22 11:06:44 51°19.819 2°30.402 301.3 12.9 302 16.4
2010-06-22 11:07:44 51°19.923 2°30.171 301.2 7.6 306 14.1
2010-06-22 11:08:44 51°19.984 2°30.048 300.8 5.3 314 12.5
2010-06-22 11:09:44 51°20.039 2°29.974 307.2 3.4 329 15
2010-06-22 11:10:44 51°20.084 2°29.961 336 2.3 6 14.2
2010-06-22 11:11:44 51°20.115 2°29.974 337.4 1.7 21 13.1
2010-06-22 11:12:44 51°20.14 2°29.994 342 1.6 26 13.4
2010-06-22 11:13:44 51°20.164 2°30.015 350.3 1.5 28 14.9
2010-06-22 11:14:44 51°20.187 2°30.038 356.4 1.6 35 14.8
2010-06-22 11:15:44 51°20.207 2°30.062 359.7 1.6 33 15.1
2010-06-22 11:16:44 51°20.241 2°30.091 17.3 2.9 30 17.7
2010-06-22 11:17:44 51°20.295 2°30.198 74.9 7.7 73 12.7
2010-06-22 11:18:43 51°20.353 2°30.477 73.4 13.3 69 12.5
2010-06-22 11:19:44 51°20.435 2°30.831 72.9 14.4 72 14.2
2010-06-22 11:20:43 51°20.512 2°31.183 73.4 14.2 71 15.7
2010-06-22 11:21:44 51°20.591 2°31.549 73.7 14.3 72 20.6
2010-06-22 11:22:43 51°20.666 2°31.9 74 14.2 71 23.5
2010-06-22 11:23:44 51°20.742 2°32.259 74.5 14 72 30.5
2010-06-22 11:24:44 51°20.767 2°32.624 91.9 13.9 87 31.1
2010-06-22 11:25:44 51°20.769 2°32.993 91.5 13.9 88 30.7
2010-06-22 11:26:44 51°20.781 2°33.365 90.5 14.1 85 31.2
2010-06-22 11:27:44 51°20.8 2°33.738 90.7 14.1 84 31.7
2010-06-22 11:28:44 51°20.819 2°34.113 90.8 14.2 85 31.9
2010-06-22 11:29:44 51°20.837 2°34.489 90.8 14.2 85 32.5
2010-06-22 11:30:44 51°20.856 2°34.865 90.4 14.2 84 32.2
2010-06-22 11:31:43 51°20.874 2°35.235 90.3 14.2 85 32.5
2010-06-22 11:32:44 51°20.892 2°35.617 90.2 14.1 86 28.6
2010-06-22 11:33:44 51°20.901 2°35.988 89.9 13.9 88 27.8
2010-06-22 11:34:44 51°20.912 2°36.357 89.6 13.9 88 23.4
2010-06-22 11:35:44 51°20.925 2°36.726 90.1 13.7 88 23.7
2010-06-22 11:36:44 51°20.936 2°37.095 90.2 14 87 22.8
2010-06-22 11:37:44 51°20.955 2°37.466 85.8 14 81 25.2
2010-06-22 11:38:44 51°20.99 2°37.835 84.6 14 80 24.8
2010-06-22 11:39:44 51°21.026 2°38.203 84.7 14 81 25.3
2010-06-22 11:40:44 51°21.059 2°38.571 87.2 13.9 85 25.6
2010-06-22 11:41:44 51°21.078 2°38.939 89 13.8 86 25.7
2010-06-22 11:42:44 51°21.094 2°39.263 90.1 9.1 85 25.6
2010-06-22 11:43:44 51°21.111 2°39.44 82.3 5.3 75 26.6
2010-06-22 11:44:44 51°21.15 2°39.533 40.8 4.2 31 26.4
2010-06-22 11:45:44 51°21.252 2°39.557 4 9.8 2 26
2010-06-22 11:46:44 51°21.466 2°39.574 8.8 13.9 8 27.1
2010-06-22 11:47:44 51°21.693 2°39.663 15.9 14.1 14 27.4
2010-06-22 11:48:44 51°21.92 2°39.76 15.3 14.2 15 28.6
2010-06-22 11:49:44 51°22.146 2°39.86 15.4 14.1 16 28.9
2010-06-22 11:50:44 51°22.365 2°39.99 20.9 14.1 22 30.2
2010-06-22 11:51:44 51°22.566 2°40.185 35.4 14.1 37 30
2010-06-22 11:52:44 51°22.755 2°40.414 37.2 14.2 37 29.8
2010-06-22 11:53:44 51°22.943 2°40.639 36.1 14.1 37 29.9
2010-06-22 11:54:44 51°23.098 2°40.921 58.1 14.3 59 30.1
2010-06-22 11:55:44 51°23.219 2°41.246 56 14.1 52 30.2
2010-06-22 11:56:44 51°23.364 2°41.546 51.8 14.3 51 29.3
2010-06-22 11:57:44 51°23.512 2°41.842 51.6 14.2 51 27.7
2010-06-22 11:58:44 51°23.659 2°42.138 51.8 14.2 51 27.6
2010-06-22 11:59:44 51°23.808 2°42.434 51.4 14.3 51 28
2010-06-22 12:00:44 51°23.957 2°42.728 51.1 14.3 51 28.4
2010-06-22 12:01:44 51°24.107 2°43.021 50.9 14.1 49 22.4
2010-06-22 12:02:44 51°24.272 2°43.287 44.5 14.1 45 25.5
2010-06-22 12:03:43 51°24.412 2°43.576 59.7 14 58 25.4
2010-06-22 12:04:44 51°24.529 2°43.905 61.7 13.9 61 26.8
2010-06-22 12:05:43 51°24.644 2°44.217 62.9 13.9 59 24.6
2010-06-22 12:06:44 51°24.756 2°44.544 62.5 13.9 60 26.5
2010-06-22 12:07:44 51°24.87 2°44.864 62.7 13.8 60 27.6
2010-06-22 12:08:44 51°24.983 2°45.183 62.8 13.8 61 27.4
2010-06-22 12:09:44 51°25.098 2°45.503 62.4 13.8 60 24.7
2010-06-22 12:10:44 51°25.214 2°45.82 62.1 13.9 60 26
2010-06-22 12:11:44 51°25.329 2°46.138 62.6 13.8 60 25.8
2010-06-22 12:12:44 51°25.444 2°46.457 62.6 13.8 61 23.9
2010-06-22 12:13:44 51°25.55 2°46.784 65.7 13.7 63 23.1
2010-06-22 12:14:44 51°25.664 2°47.105 61.1 14 58 25.9
2010-06-22 12:15:44 51°25.788 2°47.415 60.2 13.9 58 21
2010-06-22 12:16:43 51°25.903 2°47.703 59.9 11.6 58 24
2010-06-22 12:17:44 51°25.963 2°47.946 82.5 8.5 78 23.7
2010-06-22 12:18:44 51°25.975 2°48.151 106.3 7.3 103 22.9
2010-06-22 12:19:44 51°25.946 2°48.334 105.3 6.6 100 24.1
2010-06-22 12:20:44 51°25.937 2°48.477 93.2 4.3 85 23.9
2010-06-22 12:21:44 51°25.954 2°48.561 70.3 2.4 61 24.1
2010-06-22 12:22:44 51°25.97 2°48.59 43.4 1 35 24.3
2010-06-22 12:23:44 51°25.983 2°48.599 22.9 0.8 16 24.6
2010-06-22 12:24:44 51°25.995 2°48.604 6.2 0.8 9 24.6
2010-06-22 12:25:44 51°26.005 2°48.607 357.6 0.5 7 24.4
2010-06-22 12:26:44 51°26.011 2°48.608 348.8 0.3 24 24.3
2010-06-22 12:27:44 51°26.015 2°48.611 332.8 0.2 56 24.4
2010-06-22 12:28:44 51°26.016 2°48.618 317.8 0.4 83 24.7
2010-06-22 12:29:44 51°26.018 2°48.628 310.8 0.4 67 24.3
2010-06-22 12:30:44 51°26.027 2°48.623 313.6 1.6 325 24.3
2010-06-22 12:31:44 51°26.075 2°48.605 5.1 3.7 7 23.8
2010-06-22 12:32:44 51°26.128 2°48.677 62.9 4.9 56 24.7
2010-06-22 12:33:44 51°26.185 2°48.815 59.8 7.8 56 23.9
2010-06-22 12:34:44 51°26.253 2°49.053 76.3 11.3 73 23.7
2010-06-22 12:35:44 51°26.304 2°49.374 78.9 12.8 75 22.9
2010-06-22 12:36:44 51°26.36 2°49.716 78.3 13.5 75 23.1
2010-06-22 12:37:44 51°26.415 2°50.064 79.9 13.5 77 23.3
2010-06-22 12:38:44 51°26.448 2°50.418 87.1 13.5 85 23.3
2010-06-22 12:39:44 51°26.469 2°50.776 87 13.5 85 23.6
2010-06-22 12:40:44 51°26.491 2°51.134 86.8 13.5 85 26.5
2010-06-22 12:41:44 51°26.514 2°51.493 86.3 13.4 84 25.8
2010-06-22 12:42:44 51°26.537 2°51.851 86.5 13.4 84 26.7
2010-06-22 12:43:44 51°26.56 2°52.205 85.9 13.3 84 26
2010-06-22 12:44:44 51°26.584 2°52.555 86.5 13.2 83 27.6
2010-06-22 12:45:44 51°26.607 2°52.907 86.5 13.3 84 28.9
2010-06-22 12:46:44 51°26.632 2°53.26 86 13.3 83 30.8
2010-06-22 12:47:44 51°26.656 2°53.615 86.5 13.5 82 31.7
2010-06-22 12:48:44 51°26.68 2°53.969 86.3 13.5 84 31.7
2010-06-22 12:49:44 51°26.721 2°54.321 79.6 13.4 75 26.9
2010-06-22 12:50:44 51°26.774 2°54.67 78.9 13.4 76 25.4
2010-06-22 12:51:44 51°26.826 2°55.019 79.4 13.5 76 26.5
2010-06-22 12:52:44 51°26.878 2°55.365 79.1 13.3 78 27.8
2010-06-22 12:53:44 51°26.93 2°55.71 79 13.3 76 29.1
2010-06-22 12:54:44 51°26.982 2°56.056 79.1 13.3 75 27.4
2010-06-22 12:55:44 51°27.034 2°56.403 79.1 13.4 76 25.8
2010-06-22 12:56:44 51°27.088 2°56.746 79.2 13.2 76 17.3
2010-06-22 12:57:43 51°27.141 2°57.084 79.4 13.3 75 23.9
2010-06-22 12:58:44 51°27.195 2°57.434 79.5 13.4 76 23.7
2010-06-22 12:59:43 51°27.249 2°57.773 79.6 13.3 76 20.7
2010-06-22 13:00:44 51°27.303 2°58.123 79.5 13.3 76 17.2
2010-06-22 13:01:43 51°27.358 2°58.46 79.2 13.2 76 16.2
2010-06-22 13:02:44 51°27.415 2°58.809 79.2 13.4 76 17.1
2010-06-22 13:03:44 51°27.477 2°59.149 77.1 13.2 74 19.8
2010-06-22 13:04:44 51°27.541 2°59.489 77.3 13.4 73 20.3
2010-06-22 13:05:44 51°27.605 2°59.829 77 13.3 74 19.5
2010-06-22 13:06:44 51°27.667 3°0.17 77.5 13.4 73 21.1
2010-06-22 13:07:44 51°27.726 3°0.514 77.3 13.4 74 22
2010-06-22 13:08:44 51°27.786 3°0.858 77.3 13.4 75 22.6
2010-06-22 13:09:44 51°27.845 3°1.203 77.2 13.5 75 23.3
2010-06-22 13:10:44 51°27.903 3°1.55 77.6 13.5 75 22.9
2010-06-22 13:11:44 51°27.962 3°1.896 76 13.5 72 23.3
2010-06-22 13:12:44 51°28.029 3°2.238 75.3 13.4 72 23.2
2010-06-22 13:13:44 51°28.094 3°2.582 75.2 13.4 75 23.2
2010-06-22 13:14:44 51°28.161 3°2.919 74.7 12.5 73 22.4
2010-06-22 13:15:44 51°28.218 3°3.207 75.3 10.9 71 22.2
2010-06-22 13:16:44 51°28.267 3°3.453 75.6 7.5 72 22
2010-06-22 13:17:44 51°28.297 3°3.583 69.6 3.2 64 21.9
2010-06-22 13:18:44 51°28.312 3°3.616 65.2 0.9 45 21.8
2010-06-22 13:19:44 51°28.323 3°3.631 58.4 0.8 34 21.7
2010-06-22 13:20:44 51°28.333 3°3.643 54.5 0.7 35 21.8
2010-06-22 13:21:44 51°28.343 3°3.652 56 0.6 30 21.8
2010-06-22 13:22:44 51°28.352 3°3.66 59.7 0.6 23 21.7
2010-06-22 13:23:44 51°28.36 3°3.667 63.6 0.5 40 22
2010-06-22 13:24:44 51°28.368 3°3.675 66.9 0.5 38 21.9
2010-06-22 13:25:44 51°28.374 3°3.681 71 0.4 39 22
2010-06-22 13:26:44 51°28.379 3°3.687 73.4 0.4 36 21.9
2010-06-22 13:27:44 51°28.385 3°3.693 74.1 0.4 30 21.8
2010-06-22 13:28:43 51°28.389 3°3.698 74.8 0.3 35 22
2010-06-22 13:29:44 51°28.394 3°3.703 75.6 0.3 35 21.7
2010-06-22 13:30:43 51°28.398 3°3.708 75.6 0.3 47 22
2010-06-22 13:31:43 51°28.401 3°3.711 76.3 0.3 27 22.1
2010-06-22 13:32:44 51°28.405 3°3.714 78 0.2 10 22.3
2010-06-22 13:33:43 51°28.407 3°3.712 81.6 0.2 317 22
2010-06-22 13:34:44 51°28.408 3°3.705 88 0.3 286 21.9
2010-06-22 13:35:44 51°28.41 3°3.696 96.3 0.4 291 22.3
2010-06-22 13:36:44 51°28.412 3°3.683 103.9 0.5 289 22
2010-06-22 13:37:44 51°28.415 3°3.668 111.5 0.6 290 22
2010-06-22 13:38:44 51°28.404 3°3.695 122.2 2.5 125 22
2010-06-22 13:39:44 51°28.347 3°3.83 123.5 9.2 122 21.2
2010-06-22 13:40:44 51°28.249 3°4.092 120.9 12.8 121 19.8
2010-06-22 13:41:44 51°28.142 3°4.393 119.9 13.1 118 17.7
2010-06-22 13:42:44 51°28.028 3°4.686 124.7 13 121 15.5
2010-06-22 13:43:44 51°27.91 3°4.968 125.5 12.7 126 13.4
2010-06-22 13:44:44 51°27.792 3°5.25 125.3 12.8 125 14.4
2010-06-22 13:45:44 51°27.675 3°5.534 125.3 12.7 123 14.5
2010-06-22 13:46:43 51°27.56 3°5.815 124.5 12.8 124 13.8
2010-06-22 13:47:44 51°27.442 3°6.104 124.3 12.8 122 13.6
2010-06-22 13:48:43 51°27.327 3°6.382 124.8 12.7 126 13
2010-06-22 13:49:44 51°27.21 3°6.669 124.1 12.9 119 12.6
2010-06-22 13:50:44 51°27.094 3°6.949 124.3 12.7 124 11.9
2010-06-22 13:51:44 51°26.977 3°7.23 124.9 12.9 122 11.6
2010-06-22 13:52:44 51°26.862 3°7.508 124.3 12.5 122 10.6
2010-06-22 13:53:44 51°26.744 3°7.784 124.3 12.4 126 10.1
2010-06-22 13:55:00 51°26.603 3°8.119 125 11.4 124 9.2
2010-06-22 13:57:05 51°26.435 3°8.275 186.7 2.6 200 9.7
2010-06-22 13:58:05 51°26.41 3°8.244 212.3 1.2 246 9.3
2010-06-22 13:59:05 51°26.413 3°8.229 228.5 0.5 299 9.5
2010-06-22 14:00:07 51°26.417 3°8.215 228.3 0.6 297 -999
2010-06-22 14:01:06 51°26.421 3°8.202 227.2 0.5 291 9.5
2010-06-22 14:02:05 51°26.423 3°8.189 225.1 0.5 283 9.5
2010-06-22 14:03:05 51°26.425 3°8.175 222.6 0.6 279 9.5
2010-06-22 14:04:05 51°26.427 3°8.159 221.6 0.6 273 9.3
2010-06-22 14:05:05 51°26.428 3°8.143 222.2 0.6 275 9.4
2010-06-22 14:06:05 51°26.429 3°8.126 223 0.6 275 9.3
2010-06-22 14:07:05 51°26.429 3°8.108 225.7 0.7 274 9.2
2010-06-22 14:08:05 51°26.429 3°8.09 228.2 0.7 272 9.1
2010-06-22 14:09:05 51°26.43 3°8.07 232.7 0.7 266 9.1
2010-06-22 14:10:05 51°26.429 3°8.05 237.7 0.8 271 9.1
2010-06-22 14:11:05 51°26.429 3°8.028 241.9 0.8 275 9
2010-06-22 14:12:05 51°26.429 3°8.007 246.1 0.9 273 9.1
2010-06-22 14:13:05 51°26.429 3°7.985 249.9 0.8 268 9
2010-06-22 14:14:05 51°26.428 3°7.963 253 0.9 269 8.9
2010-06-22 14:15:05 51°26.428 3°7.94 256.9 0.8 266 8.9
2010-06-22 14:16:05 51°26.427 3°7.89 265.6 3.4 257 9
2010-06-22 14:17:06 51°26.357 3°7.768 212.4 10.3 216 8.7
2010-06-22 14:18:05 51°26.19 3°7.613 201.7 12.1 207 8
2010-06-22 14:19:05 51°25.994 3°7.491 196.6 13 201 8
2010-06-22 14:20:05 51°25.788 3°7.355 198.1 13.6 202 8.8
2010-06-22 14:21:05 51°25.58 3°7.217 198.3 13.5 204 8.8
2010-06-22 14:22:05 51°25.365 3°7.123 182 13.2 186 8.7
2010-06-22 14:23:05 51°25.152 3°7.152 162.9 12.7 167 8.4
2010-06-22 14:24:05 51°24.957 3°7.278 145.2 12.5 149 8.9
2010-06-22 14:25:05 51°24.8 3°7.492 127.9 12.2 128 9.7
2010-06-22 14:26:05 51°24.699 3°7.768 114.8 12 119 9.5
2010-06-22 14:27:05 51°24.603 3°8.047 118.4 12.1 124 9.7
2010-06-22 14:28:05 51°24.496 3°8.318 119.2 12.1 120 10.2
2010-06-22 14:29:05 51°24.387 3°8.586 120.4 12.1 122 11.1
2010-06-22 14:30:05 51°24.277 3°8.854 119.1 12.2 123 14.7
2010-06-22 14:31:05 51°24.164 3°9.117 119.6 12 125 17.4
2010-06-22 14:32:05 51°24.056 3°9.382 118.4 12 124 17.6
2010-06-22 14:33:05 51°23.944 3°9.646 119.7 11.9 123 16
2010-06-22 14:34:05 51°23.83 3°9.907 119.1 12 126 14.2
2010-06-22 14:35:05 51°23.711 3°10.159 123.4 11.8 131 12.9
2010-06-22 14:36:05 51°23.576 3°10.401 126 12.5 132 12.7
2010-06-22 14:37:05 51°23.44 3°10.646 125.6 12.2 131 12.1
2010-06-22 14:38:05 51°23.304 3°10.892 125.6 12.2 134 11.6
2010-06-22 14:39:05 51°23.169 3°11.138 124.4 12.3 129 11.2
2010-06-22 14:40:05 51°23.049 3°11.399 119.8 12.1 124 11.4
2010-06-22 14:41:05 51°22.932 3°11.662 120.3 11.9 123 11.9
2010-06-22 14:42:05 51°22.849 3°11.924 108.8 10.6 113 12.3
2010-06-22 14:43:05 51°22.778 3°12.184 109 10.7 115 12.3
2010-06-22 14:44:05 51°22.707 3°12.446 109.7 10.7 115 11.9
2010-06-22 14:45:05 51°22.641 3°12.706 104.9 10.3 104 11.8
2010-06-22 14:46:05 51°22.632 3°12.979 89.5 9.8 93 11.4
2010-06-22 14:47:05 51°22.619 3°13.199 95.4 6.6 99 11
2010-06-22 14:48:05 51°22.615 3°13.299 90.5 1.7 102 10.7
2010-06-22 14:49:05 51°22.603 3°13.297 129.9 1.2 229 11
2010-06-22 14:50:05 51°22.589 3°13.269 143.5 1.4 235 11
2010-06-22 14:51:05 51°22.578 3°13.236 145.5 1.5 245 11
2010-06-22 14:52:05 51°22.568 3°13.2 144.7 1.5 250 11.2
2010-06-22 14:53:05 51°22.559 3°13.162 143.3 1.5 249 11.3
2010-06-22 14:54:05 51°22.541 3°13.13 160.9 2.2 211 11.4
2010-06-22 14:55:05 51°22.494 3°13.047 237.8 5.7 250 11.8
2010-06-22 14:56:05 51°22.508 3°12.891 304.3 6.3 294 12.1
2010-06-22 14:57:05 51°22.552 3°12.738 306.4 6.3 295 12.4
2010-06-22 14:58:05 51°22.598 3°12.58 306.2 6.8 295 12.5
2010-06-22 14:59:05 51°22.628 3°12.403 280.2 7.1 275 12.5
2010-06-22 15:00:05 51°22.63 3°12.225 274.1 6.2 271 12.7
2010-06-22 15:01:05 51°22.637 3°12.075 279 5.1 271 13.1
2010-06-22 15:02:05 51°22.63 3°11.984 245.1 1.2 272 13.4
2010-06-22 15:03:09 51°22.637 3°11.975 241.1 0.5 318 -999
2010-06-22 15:04:07 51°22.642 3°11.963 234.8 0.7 295 13.2
2010-06-22 15:05:05 51°22.646 3°11.945 228.7 0.7 281 13.4
2010-06-22 15:06:05 51°22.648 3°11.923 220.5 0.9 279 13.4
2010-06-22 15:07:05 51°22.649 3°11.898 213.5 1.1 274 13.3
2010-06-22 15:08:05 51°22.649 3°11.868 208.4 1.1 270 13.4
2010-06-22 15:09:05 51°22.647 3°11.837 204.8 1.2 267 13.4
2010-06-22 15:10:05 51°22.646 3°11.805 201.9 1.2 262 13.4
2010-06-22 15:11:05 51°22.642 3°11.772 200 1.3 260 13.6
2010-06-22 15:12:05 51°22.635 3°11.735 204.1 1.7 246 13.6
2010-06-22 15:13:05 51°22.616 3°11.678 234 3.3 244 13.7
2010-06-22 15:14:05 51°22.585 3°11.574 239.4 5.3 243 14.3
2010-06-22 15:15:05 51°22.541 3°11.441 235.2 5.1 242 14.4
2010-06-22 15:16:05 51°22.523 3°11.379 201.1 1.5 265 14.5
2010-06-22 15:17:08 51°22.52 3°11.34 192.4 1.5 260 -999
2010-06-22 15:18:09 51°22.514 3°11.301 194.4 1.5 255 14.9
2010-06-22 15:19:06 51°22.506 3°11.263 200.3 1.7 252 14.5
2010-06-22 15:20:05 51°22.499 3°11.226 204.4 1.5 250 14.5
2010-06-22 15:21:05 51°22.489 3°11.187 211 2.2 241 14.6
2010-06-22 15:22:05 51°22.452 3°11.057 254.1 8.7 256 14.5
2010-06-22 15:23:05 51°22.438 3°10.743 275.1 13.5 273 15.2
2010-06-22 15:24:05 51°22.42 3°10.369 262 14.4 261 17.5
2010-06-22 15:25:05 51°22.373 3°9.993 260 14.5 257 12.7
2010-06-22 15:26:05 51°22.323 3°9.614 260.9 14.6 259 11.9
2010-06-22 15:27:05 51°22.275 3°9.231 260 14.7 259 11.9
2010-06-22 15:28:05 51°22.224 3°8.848 259.9 14.7 259 11.5
2010-06-22 15:29:05 51°22.166 3°8.47 255.6 14.6 253 11.1
2010-06-22 15:30:05 51°22.099 3°8.094 256 14.7 255 10.6
2010-06-22 15:31:05 51°22.033 3°7.72 256 14.6 254 11
2010-06-22 15:32:05 51°21.968 3°7.344 256.8 14.7 254 10.8
2010-06-22 15:33:05 51°21.903 3°6.967 256.2 14.8 254 10.5
2010-06-22 15:34:05 51°21.837 3°6.588 256.5 14.8 255 10.2
2010-06-22 15:35:05 51°21.77 3°6.21 256.1 14.7 254 10.2
2010-06-22 15:36:05 51°21.702 3°5.835 256.7 14.7 252 9.9
2010-06-22 15:37:05 51°21.634 3°5.46 256 14.6 254 9.7
2010-06-22 15:38:05 51°21.565 3°5.086 256.3 14.7 254 10.1
2010-06-22 15:39:05 51°21.496 3°4.714 256.3 14.6 252 10.1
2010-06-22 15:40:05 51°21.428 3°4.343 256.5 14.5 254 9.9
2010-06-22 15:41:05 51°21.361 3°3.972 256.2 14.6 255 9.9
2010-06-22 15:42:05 51°21.296 3°3.601 256.3 14.5 255 9.8
2010-06-22 15:43:05 51°21.226 3°3.231 252.4 14.4 249 9.7
2010-06-22 15:44:05 51°21.136 3°2.87 249.3 14.6 247 9.4
2010-06-22 15:45:05 51°21.054 3°2.506 259.6 14.6 258 9.5
2010-06-22 15:46:05 51°21.039 3°2.124 272.8 14.4 267 9.7
2010-06-22 15:47:05 51°21.03 3°1.742 270.8 14.4 265 9.6
2010-06-22 15:48:05 51°20.982 3°1.367 257.3 14.4 256 9.4
2010-06-22 15:49:05 51°20.909 3°1 254.7 14.5 252 9.5
2010-06-22 15:50:05 51°20.835 3°0.631 255 14.5 252 9.5
2010-06-22 15:51:05 51°20.761 3°0.262 254.8 14.6 251 9.7
2010-06-22 15:52:05 51°20.656 2°59.911 243.3 14.7 244 9.8
2010-06-22 15:53:05 51°20.547 2°59.562 244.4 14.7 245 9.8
2010-06-22 15:54:05 51°20.438 2°59.212 246.1 14.7 247 9.8
2010-06-22 15:55:05 51°20.341 2°58.855 248.2 14.7 247 10.1
2010-06-22 15:56:05 51°20.243 2°58.498 248.2 14.6 246 9.8
2010-06-22 15:57:05 51°20.146 2°58.143 247.7 14.7 249 10.1
2010-06-22 15:58:05 51°20.049 2°57.787 248 14.6 246 10.1
2010-06-22 15:59:05 51°19.951 2°57.429 248.9 14.7 244 10.3
2010-06-22 16:00:05 51°19.854 2°57.071 248.2 14.7 246 10.3
2010-06-22 16:01:05 51°19.757 2°56.715 248.2 14.6 247 10.4
2010-06-22 16:02:05 51°19.659 2°56.36 248.5 14.6 245 10.6
2010-06-22 16:03:05 51°19.561 2°56.007 248.4 14.6 247 10.9
2010-06-22 16:04:05 51°19.471 2°55.648 250.7 14.5 247 10.8
2010-06-22 16:05:05 51°19.38 2°55.291 250.4 14.5 249 10.8
2010-06-22 16:06:05 51°19.289 2°54.934 250 14.5 248 11
2010-06-22 16:07:05 51°19.197 2°54.579 250.2 14.5 246 11
2010-06-22 16:08:05 51°19.105 2°54.222 250.2 14.5 247 10.8
2010-06-22 16:09:05 51°19.013 2°53.865 249.8 14.6 247 11.2
2010-06-22 16:10:05 51°18.921 2°53.509 250.5 14.5 248 10.8
2010-06-22 16:11:05 51°18.83 2°53.154 250.5 14.5 247 10.8
2010-06-22 16:12:05 51°18.743 2°52.794 252.7 14.6 249 10.8
2010-06-22 16:13:05 51°18.658 2°52.431 251.9 14.5 252 11
2010-06-22 16:14:05 51°18.627 2°52.06 276.5 14.1 272 11.5
2010-06-22 16:15:05 51°18.638 2°51.684 278.9 14.2 273 12.3
2010-06-22 16:16:05 51°18.65 2°51.305 278.9 14.3 273 13.2
2010-06-22 16:17:05 51°18.625 2°51.037 237 7.2 231 13.6
2010-06-22 16:18:05 51°18.547 2°50.959 184.4 4.5 197 13.5
2010-06-22 16:19:05 51°18.489 2°50.939 159.8 2.6 193 13.2
2010-06-22 16:20:05 51°18.459 2°50.917 142.9 1.7 214 13.1
2010-06-22 16:21:05 51°18.435 2°50.891 140.6 1.7 215 13.2
2010-06-22 16:22:05 51°18.412 2°50.865 140.2 1.6 215 13
2010-06-22 16:23:05 51°18.389 2°50.838 138.4 1.7 215 13.2
2010-06-22 16:24:05 51°18.366 2°50.811 137.6 1.7 216 13.2
2010-06-22 16:25:05 51°18.344 2°50.784 137.1 1.7 217 13.1
2010-06-22 16:26:05 51°18.309 2°50.769 147.1 3.5 171 13
2010-06-22 16:27:05 51°18.213 2°50.847 136.6 9.3 146 12.6
2010-06-22 16:28:05 51°18.073 2°51.043 129.5 12.6 136 11.7
2010-06-22 16:29:05 51°17.918 2°51.287 128.2 13.4 138 10.2
2010-06-22 16:30:05 51°17.76 2°51.53 129.7 13.3 136 9.2
2010-06-22 16:31:05 51°17.598 2°51.771 129.7 13.3 138 9.3
2010-06-22 16:32:05 51°17.436 2°52.017 130 13.7 139 10.2
2010-06-22 16:33:05 51°17.273 2°52.266 130 13.4 137 10
2010-06-22 16:34:05 51°17.113 2°52.51 130.5 13.2 137 9.1
2010-06-22 16:35:05 51°16.94 2°52.738 134.7 13.3 143 8.8
2010-06-22 16:36:05 51°16.809 2°52.925 122.1 7 129 8.9
2010-06-22 16:37:05 51°16.753 2°53.026 120.6 3.9 132 10.4
2010-06-22 16:38:05 51°16.722 2°53.111 93.7 5.3 106 10.7
2010-06-22 16:39:05 51°16.674 2°53.283 111.3 8.5 120 10.8
2010-06-22 16:40:05 51°16.591 2°53.532 109.7 12 117 11
2010-06-22 16:41:05 51°16.495 2°53.816 117.7 12.3 126 11
2010-06-22 16:42:05 51°16.373 2°54.073 122 11.2 125 10.6
2010-06-22 16:43:05 51°16.309 2°54.269 98.2 6.3 107 10.5
2010-06-22 16:44:05 51°16.301 2°54.369 88.3 2.3 116 10.4
2010-06-22 16:45:05 51°16.281 2°54.373 135.8 1.3 222 10.5
2010-06-22 16:46:05 51°16.263 2°54.347 155.8 1.5 224 10.4
2010-06-22 16:47:05 51°16.246 2°54.32 167.6 1.5 225 10.4
2010-06-22 16:48:05 51°16.228 2°54.292 177.2 1.6 225 10.4
2010-06-22 16:49:05 51°16.198 2°54.261 184.9 3.9 200 10.6
2010-06-22 16:50:05 51°16.067 2°54.243 172.4 11.1 179 10.2
2010-06-22 16:51:05 51°15.856 2°54.267 169.8 13.3 175 9.9
2010-06-22 16:52:05 51°15.631 2°54.307 167.1 13.6 172 9.5
2010-06-22 16:53:05 51°15.407 2°54.353 167.1 13.6 172 8.8
2010-06-22 16:54:05 51°15.184 2°54.41 162.5 13.5 168 8.1
2010-06-22 16:55:05 51°14.97 2°54.519 154.5 13.7 158 9.2
2010-06-22 16:56:06 51°14.771 2°54.694 144.5 13.3 149 11.1
2010-06-22 16:57:05 51°14.591 2°54.879 141.4 13 145 10.8
2010-06-22 16:58:05 51°14.421 2°55.088 142.3 13 143 9.7
2010-06-22 16:59:07 51°14.249 2°55.287 145.8 10.9 146 -999
2010-06-22 17:00:06 51°14.12 2°55.406 153.3 8.4 154 10.2
2010-06-22 17:01:05 51°13.996 2°55.496 155.8 8 157 9.4
2010-06-22 17:02:05 51°13.886 2°55.58 154.5 6.9 154 10
2010-06-22 17:03:05 51°13.784 2°55.673 143.8 6.6 142 11.2
2010-06-22 17:04:05 51°13.715 2°55.788 129.4 5.6 128 11.3
2010-06-22 17:05:05 51°13.673 2°55.899 110.9 4.2 110 8.2
2010-06-22 17:06:05 51°13.663 2°55.957 117.4 0.5 98 5.6